Time;durP1;ratioP1;P1;durP2;ratioP2;P2;SDS_P1;SDS_P2;PMS_P1;PMS_P2;Temp;Humidity;BMP_temperature;BMP_pressure;BME280_temperature;BME280_humidity;BME280_pressure;Samples;Min_cycle;Max_cycle;Signal;HPM_P1;HPM_P2
2022/04/03 00:00:16;;;;;;;6.95;3.63;;;;;;;-0.77;80.20;66695.31;5008578;28;20125;-87
2022/04/03 00:02:41;;;;;;;7.57;3.80;;;;;;;-0.80;80.20;66695.13;5000076;28;20038;-87
2022/04/03 00:05:08;;;;;;;8.45;3.85;;;;;;;-0.82;79.86;66695.50;4999588;28;20041;-87
2022/04/03 00:07:33;;;;;;;6.35;3.63;;;;;;;-0.89;80.83;66687.63;4992553;28;20073;-87
2022/04/03 00:10:00;;;;;;;9.07;3.47;;;;;;;-0.86;80.57;66687.81;5009317;28;20068;-89
2022/04/03 00:12:25;;;;;;;6.30;4.00;;;;;;;-0.88;81.06;66685.59;5002115;28;20030;-87
2022/04/03 00:14:51;;;;;;;6.97;3.75;;;;;;;-0.91;80.79;66685.38;5030135;28;20037;-89
2022/04/03 00:17:16;;;;;;;6.68;3.45;;;;;;;-0.96;80.95;66674.53;5007646;28;20489;-89
2022/04/03 00:19:42;;;;;;;6.28;3.63;;;;;;;-1.03;81.52;66671.91;5008000;28;20125;-86
2022/04/03 00:22:08;;;;;;;5.90;3.35;;;;;;;-1.05;81.65;66670.22;4991729;28;20070;-86
2022/04/03 00:24:33;;;;;;;5.53;3.20;;;;;;;-1.01;82.00;66674.69;4993926;28;20501;-86
2022/04/03 00:26:59;;;;;;;8.07;3.30;;;;;;;;;;5012391;28;20033;-87
2022/04/03 00:29:25;;;;;;;4.90;2.97;;;;;;;-1.05;81.68;66672.25;4993259;28;20048;-86
2022/04/03 00:31:50;;;;;;;6.35;3.13;;;;;;;-1.11;81.96;66660.31;4994682;28;20489;-86
2022/04/03 00:34:17;;;;;;;5.50;3.10;;;;;;;-1.14;81.96;66655.44;4995235;28;20068;-86
2022/04/03 00:36:42;;;;;;;6.65;3.40;;;;;;;-1.15;81.69;66654.31;4993633;28;20065;-86
2022/04/03 00:39:08;;;;;;;6.32;3.60;;;;;;;-1.15;82.18;66659.00;4993250;28;20069;-87
2022/04/03 00:41:34;;;;;;;5.07;3.22;;;;;;;-1.15;82.97;66653.78;5005425;28;20265;-88
2022/04/03 00:44:00;;;;;;;6.78;3.17;;;;;;;-1.18;82.59;66656.19;4989136;28;20045;-89
2022/04/03 00:46:27;;;;;;;5.38;3.08;;;;;;;-1.21;82.93;66647.59;4988997;28;20068;-87
2022/04/03 00:48:54;;;;;;;4.90;3.17;;;;;;;-1.19;83.17;66657.66;4990524;28;20046;-88
2022/04/03 00:51:20;;;;;;;4.50;3.10;;;;;;;-1.26;82.84;66644.03;4991301;28;20033;-87
2022/04/03 00:53:46;;;;;;;6.25;2.92;;;;;;;-1.29;83.88;66643.81;5005663;28;20556;-88
2022/04/03 00:56:12;;;;;;;5.80;2.75;;;;;;;-1.33;83.52;66638.75;4990900;28;20046;-87
2022/04/03 00:58:38;;;;;;;6.15;3.08;;;;;;;-1.34;83.41;66635.59;4987607;28;20047;-87
2022/04/03 01:01:04;;;;;;;5.32;2.92;;;;;;;-1.38;83.40;66634.28;5008898;28;20043;-87
2022/04/03 01:03:29;;;;;;;5.28;2.80;;;;;;;;;;4986055;28;20064;-86
2022/04/03 01:05:56;;;;;;;6.35;3.25;;;;;;;-1.39;83.76;66627.38;4986873;28;20054;-86
2022/04/03 01:08:25;;;;;;;6.10;2.80;;;;;;;-1.44;83.66;66624.34;5004620;28;20054;-87
2022/04/03 01:10:51;;;;;;;3.65;2.58;;;;;;;-1.50;84.41;66618.19;4988175;28;20050;-87
2022/04/03 01:13:16;;;;;;;4.50;2.72;;;;;;;-1.51;84.39;66624.34;4985941;28;20041;-87
2022/04/03 01:15:42;;;;;;;4.72;2.88;;;;;;;-1.56;84.28;66608.84;4988417;28;20041;-87
2022/04/03 01:18:08;;;;;;;3.75;2.65;;;;;;;-1.60;84.65;66610.13;4988715;28;20038;-88
2022/04/03 01:20:35;;;;;;;5.28;3.05;;;;;;;-1.63;84.57;66606.75;4989065;28;20045;-88
2022/04/03 01:23:00;;;;;;;5.35;3.20;;;;;;;-1.65;85.08;66604.50;4994966;28;20062;-87
2022/04/03 01:25:26;;;;;;;6.65;3.17;;;;;;;-1.68;85.38;66603.75;5008221;28;20469;-87
2022/04/03 01:27:51;;;;;;;4.95;3.22;;;;;;;-1.73;85.73;66595.53;4992798;28;20034;-87
2022/04/03 01:30:16;;;;;;;4.78;3.50;;;;;;;-1.77;85.83;66588.44;4992784;28;20038;-87
2022/04/03 01:32:42;;;;;;;5.85;2.83;;;;;;;-1.77;86.06;66585.81;5008328;28;20064;-86
2022/04/03 01:35:08;;;;;;;4.32;2.60;;;;;;;-1.86;85.98;66581.50;4986941;28;20045;-86
2022/04/03 01:37:33;;;;;;;7.38;3.22;;;;;;;-1.84;86.44;66585.81;4984214;28;20056;-86
2022/04/03 01:39:58;;;;;;;5.97;3.03;;;;;;;-1.78;86.52;66584.72;5004777;28;20042;-87
2022/04/03 01:42:24;;;;;;;4.30;2.47;;;;;;;-1.84;86.20;66585.81;5005721;28;20076;-88
2022/04/03 01:44:49;;;;;;;7.32;2.63;;;;;;;-1.82;86.58;66582.81;5002222;28;20129;-87
2022/04/03 01:47:15;;;;;;;5.28;3.00;;;;;;;-1.97;87.11;66563.38;4987410;28;20508;-87
2022/04/03 01:49:41;;;;;;;5.63;2.78;;;;;;;-2.01;86.93;66558.88;5002815;28;20537;-89
2022/04/03 01:52:06;;;;;;;4.65;3.33;;;;;;;-2.00;87.64;66560.00;4987035;28;20046;-88
2022/04/03 01:54:32;;;;;;;7.03;2.78;;;;;;;-1.95;87.56;66574.00;4986419;28;20054;-89
2022/04/03 01:56:57;;;;;;;5.70;3.10;;;;;;;-1.89;86.76;66575.53;4987325;28;20046;-88
2022/04/03 01:59:23;;;;;;;7.10;2.70;;;;;;;-1.98;86.68;66562.28;5004480;28;20040;-88
2022/04/03 02:01:48;;;;;;;6.07;3.17;;;;;;;-2.07;87.22;66552.72;4987404;28;20045;-88
2022/04/03 02:04:14;;;;;;;5.95;3.28;;;;;;;-2.11;87.61;66548.78;4986097;28;20448;-89
2022/04/03 02:06:40;;;;;;;7.30;3.72;;;;;;;-2.18;87.86;66546.16;5003664;28;20389;-88
2022/04/03 02:09:07;;;;;;;6.47;3.20;;;;;;;-2.20;88.57;66540.75;4987331;28;20537;-88
2022/04/03 02:11:34;;;;;;;5.78;3.42;;;;;;;-2.18;88.72;66543.00;4984288;28;20471;-88
2022/04/03 02:13:59;;;;;;;8.20;3.45;;;;;;;-2.23;88.88;66539.97;5004597;28;20049;-88
2022/04/03 02:16:24;;;;;;;6.05;2.70;;;;;;;-2.41;89.06;66522.97;4985512;28;20095;-88
2022/04/03 02:18:50;;;;;;;4.93;2.50;;;;;;;-2.44;89.43;66520.16;4985213;28;20176;-88
2022/04/03 02:21:15;;;;;;;5.65;2.35;;;;;;;-2.46;88.98;66514.75;4988228;28;20508;-88
2022/04/03 02:23:41;;;;;;;6.07;2.92;;;;;;;-2.32;90.12;66527.84;4985117;28;20887;-90
2022/04/03 02:26:06;;;;;;;5.63;3.10;;;;;;;-2.33;89.81;66524.09;4988172;28;20046;-89
2022/04/03 02:28:31;;;;;;;4.97;2.85;;;;;;;-2.37;89.86;66522.22;4986215;28;20129;-88
2022/04/03 02:30:57;;;;;;;7.10;3.40;;;;;;;-2.38;89.38;66519.06;4988536;28;20046;-88
2022/04/03 02:33:22;;;;;;;6.25;3.30;;;;;;;-2.41;90.30;66517.75;4985626;28;20053;-89
2022/04/03 02:35:48;;;;;;;7.00;3.60;;;;;;;-2.42;89.94;66519.78;4986292;28;20128;-89
2022/04/03 02:38:15;;;;;;;5.10;3.47;;;;;;;-2.41;90.57;66520.34;4988116;28;20046;-90
2022/04/03 02:40:42;;;;;;;5.80;3.03;;;;;;;-2.64;90.62;66495.13;4985251;28;20053;-88
2022/04/03 02:43:07;;;;;;;6.45;3.80;;;;;;;-2.60;91.13;66500.16;4984307;28;20042;-88
2022/04/03 02:45:36;;;;;;;6.50;3.75;;;;;;;-2.56;91.55;66504.66;4986079;28;20441;-87
2022/04/03 02:48:01;;;;;;;6.13;3.45;;;;;;;-2.57;90.59;66503.50;4984494;28;20042;-87
2022/04/03 02:50:27;;;;;;;6.80;3.50;;;;;;;-2.62;90.95;66500.53;4985488;28;20053;-87
2022/04/03 02:52:54;;;;;;;4.68;2.85;;;;;;;-2.69;90.50;66492.66;5005055;28;20045;-89
2022/04/03 02:55:21;;;;;;;6.70;4.07;;;;;;;-2.58;90.61;66499.22;5003738;28;20066;-88
2022/04/03 02:57:47;;;;;;;7.68;4.13;;;;;;;-2.61;90.46;66499.03;4985238;28;20061;-89
2022/04/03 03:00:17;;;;;;;6.10;3.97;;;;;;;-2.62;90.86;66494.72;5002099;28;20038;-88
2022/04/03 03:02:45;;;;;;;6.90;3.83;;;;;;;-2.60;90.88;66500.16;4985672;28;20049;-88
2022/04/03 03:05:14;;;;;;;8.05;4.13;;;;;;;-2.62;90.64;66495.31;4987056;28;20096;-87
2022/04/03 03:07:41;;;;;;;5.75;3.45;;;;;;;-2.67;90.75;66489.69;4984493;28;20048;-88
2022/04/03 03:10:09;;;;;;;6.18;4.32;;;;;;;-2.66;90.82;66492.88;5005730;28;20136;-88
2022/04/03 03:12:35;;;;;;;7.63;3.88;;;;;;;-2.70;90.83;66490.97;4985003;28;20104;-89
2022/04/03 03:15:01;;;;;;;8.18;4.25;;;;;;;-2.69;90.88;66490.06;5004193;28;20050;-89
2022/04/03 03:17:27;;;;;;;7.82;4.78;;;;;;;-2.67;90.66;66497.50;4984852;28;20544;-88
2022/04/03 03:19:52;;;;;;;5.90;3.92;;;;;;;-2.65;90.67;66494.53;4992329;28;20041;-88
2022/04/03 03:22:19;;;;;;;6.07;3.72;;;;;;;-2.82;90.08;66473.44;4997436;28;20064;-88
2022/04/03 03:24:44;;;;;;;5.63;3.67;;;;;;;-2.78;91.07;66477.91;5007342;28;20065;-88
2022/04/03 03:27:10;;;;;;;6.15;4.28;;;;;;;-2.69;90.97;66486.91;4987762;28;20769;-88
2022/04/03 03:29:36;;;;;;;6.43;3.63;;;;;;;-2.67;91.08;66492.31;4986463;28;20839;-88
2022/04/03 03:32:07;;;;;;;6.60;4.40;;;;;;;-2.66;90.37;66498.63;4987378;28;20065;-89
2022/04/03 03:34:34;;;;;;;7.30;4.70;;;;;;;-2.68;90.98;66488.56;4984238;28;20038;-89
2022/04/03 03:37:00;;;;;;;8.20;4.50;;;;;;;-2.70;91.35;66486.34;4989090;28;20109;-89
2022/04/03 03:39:27;;;;;;;7.28;4.72;;;;;;;-2.66;90.79;66493.41;4985308;28;20561;-88
2022/04/03 03:41:54;;;;;;;7.68;4.40;;;;;;;-2.61;90.46;66499.03;4987363;28;20123;-88
2022/04/03 03:44:19;;;;;;;8.57;4.47;;;;;;;-2.68;91.08;66488.00;5005361;28;20057;-89
2022/04/03 03:46:45;;;;;;;6.63;4.68;;;;;;;-2.63;90.36;66496.78;5000745;28;20054;-88
2022/04/03 03:49:12;;;;;;;7.13;4.50;;;;;;;-2.68;90.34;66488.00;4998770;28;20018;-89
2022/04/03 03:51:38;;;;;;;5.60;4.30;;;;;;;-2.67;91.14;66487.09;5009109;28;20022;-89
2022/04/03 03:54:04;;;;;;;6.82;3.97;;;;;;;-2.68;91.03;66491.16;5007235;28;20108;-88
2022/04/03 03:56:29;;;;;;;5.80;4.10;;;;;;;-2.77;91.02;66481.06;4987907;28;20052;-87
2022/04/03 03:58:55;;;;;;;8.43;4.75;;;;;;;-2.76;91.28;66479.59;5007332;28;20054;-87
2022/04/03 04:01:21;;;;;;;6.50;4.47;;;;;;;-2.70;91.44;66483.72;4986155;28;20046;-87
2022/04/03 04:03:46;;;;;;;7.38;4.38;;;;;;;-2.66;91.70;66492.88;4985840;28;20096;-87
2022/04/03 04:06:12;;;;;;;6.78;3.70;;;;;;;-2.86;91.36;66474.16;4988993;28;20054;-87
2022/04/03 04:08:38;;;;;;;7.07;3.85;;;;;;;-2.85;91.70;66466.91;4987600;28;20154;-88
2022/04/03 04:11:03;;;;;;;7.97;3.90;;;;;;;-2.98;91.96;66458.66;4989000;28;20579;-87
2022/04/03 04:13:29;;;;;;;6.05;3.80;;;;;;;-3.09;92.40;66443.16;4989006;28;20057;-87
2022/04/03 04:15:54;;;;;;;5.00;3.53;;;;;;;-3.18;93.28;66433.63;5005847;28;20052;-87
2022/04/03 04:18:20;;;;;;;6.30;3.88;;;;;;;-3.20;93.89;66431.38;4991697;28;20041;-87
2022/04/03 04:20:45;;;;;;;5.28;3.78;;;;;;;-3.20;93.81;66434.53;4986563;28;20042;-87
2022/04/03 04:23:11;;;;;;;7.55;4.60;;;;;;;-3.14;94.72;66440.72;5010077;28;20683;-88
2022/04/03 04:25:37;;;;;;;6.88;4.40;;;;;;;-3.14;94.45;66434.94;4991408;28;20053;-88
2022/04/03 04:28:02;;;;;;;5.78;3.72;;;;;;;-3.22;93.67;66431.75;4988916;28;20053;-88
2022/04/03 04:30:28;;;;;;;6.85;4.88;;;;;;;-3.34;94.38;66415.69;4987310;28;20060;-88
2022/04/03 04:32:54;;;;;;;8.77;4.95;;;;;;;-3.27;95.36;66426.16;4984018;28;20112;-88
2022/04/03 04:35:19;;;;;;;6.53;4.50;;;;;;;-3.08;94.53;66447.44;4989448;28;20038;-88
2022/04/03 04:37:48;;;;;;;7.45;4.85;;;;;;;-3.11;94.62;66444.06;4992308;28;20049;-87
2022/04/03 04:40:14;;;;;;;8.07;5.10;;;;;;;-3.10;94.87;66445.19;4992416;28;20477;-87
2022/04/03 04:42:39;;;;;;;7.78;5.80;;;;;;;-3.06;94.40;66449.69;4992137;28;20289;-88
2022/04/03 04:45:07;;;;;;;7.40;5.55;;;;;;;-3.05;94.08;66445.03;5009930;28;20509;-88
2022/04/03 04:47:38;;;;;;;6.90;4.43;;;;;;;-3.30;94.33;66423.34;4989455;28;20752;-88
2022/04/03 04:50:08;;;;;;;8.55;5.05;;;;;;;-3.16;94.72;66438.47;4988730;28;20739;-89
2022/04/03 04:52:35;;;;;;;7.80;5.30;;;;;;;-3.20;95.05;66431.38;4985611;28;20545;-89
2022/04/03 04:55:01;;;;;;;8.95;5.30;;;;;;;-3.17;94.77;66437.34;4981882;28;20057;-89
2022/04/03 04:57:26;;;;;;;8.60;5.88;;;;;;;-3.15;95.01;66442.19;4987191;28;20405;-87
2022/04/03 04:59:51;;;;;;;7.90;5.97;;;;;;;-3.15;94.51;66439.59;5012372;22;20467;-87
2022/04/03 05:02:17;;;;;;;9.32;6.22;;;;;;;-3.25;95.38;66428.94;5032292;28;20035;-87
2022/04/03 05:04:42;;;;;;;12.18;6.00;;;;;;;-3.20;95.18;66428.78;5045248;28;20099;-88
2022/04/03 05:07:10;;;;;;;7.03;4.00;;;;;;;-3.25;93.91;66425.78;5031267;28;20449;-89
2022/04/03 05:09:35;;;;;;;7.32;4.80;;;;;;;-3.11;94.89;66443.50;5027551;28;20071;-89
2022/04/03 05:12:01;;;;;;;8.70;5.40;;;;;;;-3.09;93.51;66446.31;5030266;28;20492;-89
2022/04/03 05:14:27;;;;;;;7.93;4.55;;;;;;;-3.26;93.57;66422.06;5028572;28;20684;-89
2022/04/03 05:16:52;;;;;;;10.85;4.93;;;;;;;-3.21;95.08;66433.44;5031203;28;20470;-88
2022/04/03 05:19:18;;;;;;;7.75;4.55;;;;;;;-3.11;94.86;66443.50;5025009;28;20049;-88
2022/04/03 05:21:44;;;;;;;7.30;4.35;;;;;;;-3.09;94.24;66441.13;5020722;28;20144;-88
2022/04/03 05:24:09;;;;;;;6.93;4.30;;;;;;;-3.24;94.54;66424.31;5016572;28;20045;-86
2022/04/03 05:26:34;;;;;;;6.47;4.55;;;;;;;-3.20;95.33;66437.16;5024996;28;20048;-86
2022/04/03 05:29:00;;;;;;;8.60;4.78;;;;;;;-3.05;95.05;66445.59;5044540;28;20037;-87
2022/04/03 05:31:26;;;;;;;7.63;5.03;;;;;;;-2.97;95.06;66457.16;5042587;28;20126;-87
2022/04/03 05:33:52;;;;;;;9.77;5.78;;;;;;;-2.97;95.21;66457.16;5028774;28;20503;-86
2022/04/03 05:36:17;;;;;;;7.43;5.35;;;;;;;-2.85;95.17;66469.50;5029737;28;20043;-90
2022/04/03 05:38:42;;;;;;;6.85;4.88;;;;;;;-2.91;94.27;66467.97;5054045;28;20037;-89
2022/04/03 05:41:08;;;;;;;9.65;6.20;;;;;;;-2.85;94.90;66470.06;5060608;28;20520;-89
2022/04/03 05:43:33;;;;;;;9.77;6.18;;;;;;;-2.71;94.81;66485.19;5031733;28;20109;-89
2022/04/03 05:45:59;;;;;;;9.50;6.35;;;;;;;-2.63;94.55;66494.19;5050340;28;20518;-88
2022/04/03 05:48:24;;;;;;;9.35;6.15;;;;;;;-2.55;94.94;66505.19;5049072;28;20516;-89
2022/04/03 05:50:50;;;;;;;10.27;5.63;;;;;;;-2.59;94.45;66501.28;5031028;28;20046;-87
2022/04/03 05:53:15;;;;;;;9.05;4.43;;;;;;;-2.44;94.21;66524.81;5043536;28;20064;-87
2022/04/03 05:55:41;;;;;;;5.90;4.38;;;;;;;-2.39;94.52;66517.38;5038324;28;20052;-88
2022/04/03 05:58:06;;;;;;;8.75;4.00;;;;;;;-2.40;94.15;66516.81;5051348;28;20147;-87
2022/04/03 06:00:31;;;;;;;6.45;3.28;;;;;;;-2.32;93.87;66528.41;5035536;28;20048;-88
2022/04/03 06:02:59;;;;;;;6.65;4.60;;;;;;;-2.25;94.04;66538.28;5054288;28;20036;-89
2022/04/03 06:05:34;;;;;;;7.22;4.57;;;;;;;-2.17;94.16;66552.47;5042152;28;20033;-86
2022/04/03 06:08:00;;;;;;;7.85;5.00;;;;;;;-2.05;93.96;66558.13;5053065;28;20124;-85
2022/04/03 06:10:26;;;;;;;8.70;4.57;;;;;;;-2.02;93.62;66562.97;5028998;28;20037;-85
2022/04/03 06:13:05;;;;;;;7.53;5.28;;;;;;;-1.93;93.87;66571.03;5058079;28;20118;-86
2022/04/03 06:15:37;;;;;;;7.28;4.38;;;;;;;-1.90;93.21;66577.03;5033293;28;20033;-86
2022/04/03 06:18:05;;;;;;;9.90;5.25;;;;;;;-1.79;93.59;66585.63;5051531;28;20043;-85
2022/04/03 06:20:30;;;;;;;8.82;6.07;;;;;;;-1.76;93.81;66589.56;5039353;28;20067;-86
2022/04/03 06:22:56;;;;;;;7.82;4.95;;;;;;;-1.78;92.81;66589.94;5046925;28;20554;-87
2022/04/03 06:25:22;;;;;;;6.78;4.35;;;;;;;-1.64;92.52;66602.47;5047758;28;20033;-87
2022/04/03 06:27:47;;;;;;;6.07;3.92;;;;;;;-1.59;92.29;66608.06;5030388;28;20052;-88
2022/04/03 06:30:13;;;;;;;8.68;4.88;;;;;;;-1.52;92.64;66613.34;5050051;28;20037;-89
2022/04/03 06:32:39;;;;;;;6.82;5.20;;;;;;;-1.41;92.19;66627.72;5048709;28;20393;-88
2022/04/03 06:35:06;;;;;;;11.18;4.53;;;;;;;-1.46;91.86;66625.28;5048184;28;20212;-87
2022/04/03 06:37:32;;;;;;;8.02;3.90;;;;;;;-1.49;91.79;66621.38;5049026;28;20555;-87
2022/04/03 06:39:57;;;;;;;8.38;5.88;;;;;;;-1.34;92.49;66635.03;5051903;28;20068;-86
2022/04/03 06:42:28;;;;;;;7.20;4.13;;;;;;;-1.39;91.69;66635.19;5030186;28;20117;-87
2022/04/03 06:44:54;;;;;;;7.45;5.10;;;;;;;-1.41;91.67;66625.69;5025977;28;20788;-87
2022/04/03 06:47:19;;;;;;;7.38;5.05;;;;;;;-1.33;91.48;66638.75;5044577;28;20179;-88
2022/04/03 06:49:45;;;;;;;4.72;3.60;;;;;;;-1.40;91.27;66628.84;5022776;28;20051;-88
2022/04/03 06:52:10;;;;;;;6.70;3.85;;;;;;;-1.30;91.19;66640.06;5042964;28;20393;-89
2022/04/03 06:54:36;;;;;;;8.35;5.38;;;;;;;-1.20;92.09;66648.72;5025407;28;20049;-87
2022/04/03 06:57:02;;;;;;;7.20;4.53;;;;;;;-1.27;91.96;66643.44;5043964;28;20134;-86
2022/04/03 06:59:29;;;;;;;10.23;4.88;;;;;;;-1.24;92.84;66649.41;5025498;28;20044;-86
2022/04/03 07:01:55;;;;;;;9.15;6.25;;;;;;;-1.09;93.72;66665.72;5042175;28;20095;-85
2022/04/03 07:04:20;;;;;;;9.98;6.00;;;;;;;-1.05;93.89;66665.00;5027399;28;20068;-85
2022/04/03 07:06:46;;;;;;;10.07;6.75;;;;;;;-1.07;94.69;66665.34;5042757;28;20075;-85
2022/04/03 07:09:11;;;;;;;9.88;7.07;;;;;;;-1.02;95.33;66670.41;5042316;28;20063;-85
2022/04/03 07:11:37;;;;;;;10.13;5.43;;;;;;;-1.09;95.92;66660.50;5022247;28;20115;-85
2022/04/03 07:14:03;;;;;;;8.85;5.50;;;;;;;-1.10;96.39;66661.41;5040638;28;20120;-86
2022/04/03 07:16:28;;;;;;;16.20;10.32;;;;;;;-0.92;96.08;66681.66;5042916;28;20036;-86
2022/04/03 07:18:53;;;;;;;18.77;10.07;;;;;;;-0.85;96.11;66692.13;5039588;28;20456;-85
2022/04/03 07:21:19;;;;;;;12.93;8.13;;;;;;;-0.99;96.96;66674.34;5041219;28;20456;-86
2022/04/03 07:23:44;;;;;;;10.95;5.85;;;;;;;-1.00;97.36;66673.22;5038018;28;20795;-86
2022/04/03 07:26:10;;;;;;;7.88;5.00;;;;;;;-0.98;97.39;66675.47;5028247;28;20128;-86
2022/04/03 07:28:36;;;;;;;11.85;5.38;;;;;;;-0.88;97.71;66688.19;5025538;28;20508;-87
2022/04/03 07:31:01;;;;;;;9.55;5.95;;;;;;;-0.78;97.54;66696.81;5020334;28;20052;-86
2022/04/03 07:33:27;;;;;;;8.02;5.72;;;;;;;-0.69;97.87;66704.88;5044590;28;20029;-87
2022/04/03 07:35:52;;;;;;;10.15;6.90;;;;;;;-0.50;97.39;66727.72;5022166;28;20052;-88
2022/04/03 07:38:18;;;;;;;8.68;6.00;;;;;;;-0.54;97.73;66725.84;5044274;28;20555;-87
2022/04/03 07:40:47;;;;;;;10.95;6.00;;;;;;;-0.56;98.02;66724.16;5044339;28;20408;-87
2022/04/03 07:43:16;;;;;;;10.52;4.63;;;;;;;;;;5017691;28;20541;-88
2022/04/03 07:45:55;;;;;;;9.27;6.75;;;;;;;-0.44;98.58;66731.84;5028409;28;20742;-87
2022/04/03 07:48:21;;;;;;;;;;;;;;;-0.30;98.94;66747.56;5010642;28;21245;-87
2022/04/03 07:50:46;;;;;;;9.55;5.72;;;;;;;-0.30;99.76;66747.00;4997043;28;20161;-88
2022/04/03 07:54:37;;;;;;;10.45;7.65;;;;;;;-0.15;98.22;66763.31;4998866;28;20212;-89
2022/04/03 07:57:06;;;;;;;11.40;6.70;;;;;;;-0.05;95.84;66777.75;4833029;29;20114;-89
2022/04/03 07:59:34;;;;;;;;;;;;;;;;;;4871547;29;20559;-88
2022/04/03 08:01:59;;;;;;;12.68;6.82;;;;;;;0.19;96.31;66806.78;4884613;29;19965;-89
2022/04/03 08:04:25;;;;;;;9.82;5.32;;;;;;;0.33;95.04;66821.97;4870603;29;20480;-88
2022/04/03 08:06:50;;;;;;;9.88;4.88;;;;;;;0.34;93.68;66817.28;4886920;29;20105;-88
2022/04/03 08:09:16;;;;;;;7.90;4.40;;;;;;;0.41;93.21;66827.78;4871345;29;20052;-88
2022/04/03 08:11:42;;;;;;;7.13;4.13;;;;;;;0.48;93.19;66835.66;4870661;29;20052;-87
2022/04/03 08:14:09;;;;;;;6.50;3.88;;;;;;;0.50;92.30;66837.91;4894622;29;20117;-88
2022/04/03 08:16:35;;;;;;;7.70;3.95;;;;;;;0.55;92.46;66843.53;4905215;29;20133;-88
2022/04/03 08:19:03;;;;;;;8.77;3.55;;;;;;;0.58;92.41;66844.28;4866615;29;20043;-87
2022/04/03 08:21:31;;;;;;;5.78;3.90;;;;;;;0.64;92.13;66851.03;4894662;29;20539;-86
2022/04/03 08:23:56;;;;;;;9.35;4.22;;;;;;;;;;4906696;29;20048;-86
2022/04/03 08:26:25;;;;;;;6.85;4.68;;;;;;;0.83;92.26;66874.47;4893492;29;20103;-86
2022/04/03 08:28:53;;;;;;;5.18;3.15;;;;;;;0.89;92.67;66883.28;4911407;29;20119;-86
2022/04/03 08:31:27;;;;;;;5.45;2.88;;;;;;;0.95;92.03;66884.22;4913519;29;20052;-86
2022/04/03 08:33:53;;;;;;;9.20;4.25;;;;;;;1.09;91.85;66908.41;4914535;28;20112;-86
2022/04/03 08:36:19;;;;;;;7.38;4.78;;;;;;;1.31;90.78;66924.19;4934110;28;20803;-86
2022/04/03 08:38:46;;;;;;;6.43;3.90;;;;;;;1.40;90.17;66934.31;4932592;28;20062;-87
2022/04/03 08:41:12;;;;;;;5.43;3.13;;;;;;;1.46;89.58;66943.69;4952144;28;20460;-86
2022/04/03 08:43:40;;;;;;;9.77;4.03;;;;;;;1.75;89.75;66972.59;4934490;28;20546;-86
2022/04/03 08:46:06;;;;;;;4.93;3.30;;;;;;;;;;4943894;28;20047;-86
2022/04/03 08:48:32;;;;;;;4.97;3.20;;;;;;;1.95;88.50;66995.13;5012385;28;20041;-86
2022/04/03 08:51:02;;;;;;;5.65;3.55;;;;;;;2.14;86.66;67020.66;5043724;28;20036;-86
2022/04/03 08:53:30;;;;;;;5.53;2.78;;;;;;;2.23;85.65;67026.09;5044264;28;20103;-86
2022/04/03 08:55:55;;;;;;;4.55;2.92;;;;;;;2.28;85.10;67031.19;5027123;28;20579;-86
2022/04/03 08:58:21;;;;;;;4.72;3.00;;;;;;;2.41;84.62;67047.88;5030240;28;20099;-86
2022/04/03 09:00:46;;;;;;;5.07;3.17;;;;;;;2.73;84.60;67086.00;5021276;23;20411;-86
2022/04/03 09:03:13;;;;;;;5.55;1.98;;;;;;;;;;5026327;28;20041;-86
2022/04/03 09:05:39;;;;;;;4.85;2.60;;;;;;;;;;5025222;28;20041;-86
2022/04/03 09:08:05;;;;;;;3.72;2.30;;;;;;;3.21;82.19;67135.81;5011982;28;20041;-87
2022/04/03 09:10:31;;;;;;;4.03;2.55;;;;;;;3.35;82.03;67154.22;4994717;28;20076;-86
2022/04/03 09:12:57;;;;;;;6.10;2.83;;;;;;;3.63;81.38;67179.44;5010685;28;20469;-87
2022/04/03 09:15:25;;;;;;;2.92;1.67;;;;;;;3.72;80.32;67190.16;5026917;28;20095;-87
2022/04/03 09:21:16;;;;;;;5.38;2.65;;;;;;;;;;4993500;28;20052;-86
2022/04/03 09:24:07;;;;;;;5.60;3.65;;;;;;;3.92;80.75;67214.22;5018390;28;20049;-87
2022/04/03 09:26:34;;;;;;;4.68;2.75;;;;;;;4.13;78.82;67235.28;4970773;28;20070;-87
2022/04/03 09:29:17;;;;;;;5.82;2.80;;;;;;;4.45;78.35;67265.00;4998410;28;20049;-87
2022/04/03 09:31:56;;;;;;;6.55;2.15;;;;;;;4.39;76.31;67264.06;5008459;28;20128;-87
2022/04/03 09:38:08;;;;;;;3.78;1.88;;;;;;;4.59;76.67;67286.06;4992865;28;20049;-87
2022/04/03 09:40:35;;;;;;;5.57;1.92;;;;;;;4.82;77.63;67310.91;5024673;28;20061;-87
2022/04/03 09:43:20;;;;;;;5.05;1.80;;;;;;;4.90;76.59;67319.94;5008348;28;20045;-87
2022/04/03 09:45:56;;;;;;;3.38;1.90;;;;;;;4.97;76.20;67328.41;5022971;28;20052;-87
2022/04/03 09:48:28;;;;;;;3.55;1.77;;;;;;;5.22;77.08;67360.25;5007020;28;20045;-87
2022/04/03 09:51:04;;;;;;;4.15;1.67;;;;;;;;;;5024628;28;20041;-88
2022/04/03 09:53:47;;;;;;;3.22;1.45;;;;;;;5.40;72.64;67375.28;5004194;28;20079;-87
2022/04/03 09:56:14;;;;;;;4.68;1.55;;;;;;;;;;4971215;28;20037;-87
2022/04/03 09:58:51;;;;;;;3.28;1.40;;;;;;;5.23;73.60;67356.09;5027744;28;20052;-87
2022/04/03 10:01:36;;;;;;;3.38;1.70;;;;;;;5.17;74.21;67345.16;5002185;28;20065;-87
2022/04/03 10:04:03;;;;;;;2.70;1.35;;;;;;;5.20;73.36;67353.81;5021574;28;20046;-87
2022/04/03 10:06:29;;;;;;;3.28;1.23;;;;;;;;;;5017961;28;20248;-87
2022/04/03 10:08:56;;;;;;;2.42;1.33;;;;;;;5.30;73.06;67364.00;5019871;28;20504;-87
2022/04/03 10:11:22;;;;;;;2.97;1.30;;;;;;;;;;5025273;28;20056;-87
2022/04/03 10:13:48;;;;;;;3.65;1.40;;;;;;;5.41;71.94;67377.00;4996613;28;20448;-87
2022/04/03 10:16:14;;;;;;;3.58;1.60;;;;;;;;;;5020252;28;20489;-87
2022/04/03 10:18:40;;;;;;;5.82;1.30;;;;;;;;;;5004364;28;20049;-87
2022/04/03 10:21:08;;;;;;;4.85;2.05;;;;;;;;;;4971839;28;20122;-87
2022/04/03 10:23:39;;;;;;;4.10;1.60;;;;;;;5.64;68.63;67401.84;4947543;28;20042;-86
2022/04/03 10:26:06;;;;;;;2.92;1.20;;;;;;;5.62;68.16;67399.59;4952467;28;20066;-89
2022/04/03 10:28:32;;;;;;;4.35;1.92;;;;;;;5.63;69.26;67401.28;4968619;28;20050;-88
2022/04/03 10:31:00;;;;;;;10.63;5.35;;;;;;;5.65;69.94;67403.53;4940048;28;20043;-88
2022/04/03 10:33:25;;;;;;;2.88;1.70;;;;;;;5.57;74.20;67394.50;4944087;28;20474;-88
2022/04/03 10:36:11;;;;;;;5.70;2.08;;;;;;;5.30;78.56;67364.00;4949683;28;20038;-88
2022/04/03 10:38:44;;;;;;;4.20;1.50;;;;;;;4.89;82.35;67324.09;4963531;28;20046;-89
2022/04/03 10:41:37;;;;;;;1.92;1.30;;;;;;;4.53;85.25;67279.28;4949634;28;20050;-88
2022/04/03 10:44:18;;;;;;;2.83;1.35;;;;;;;4.46;86.91;67274.03;4965289;28;20556;-88
2022/04/03 10:47:01;;;;;;;5.50;1.30;;;;;;;4.24;88.08;67247.13;5004263;28;20033;-88
2022/04/03 10:49:40;;;;;;;3.50;1.58;;;;;;;4.04;90.34;67225.69;5007907;28;20416;-89
2022/04/03 10:52:35;;;;;;;5.65;1.65;;;;;;;3.94;91.30;67219.69;5006264;28;20130;-89
2022/04/03 10:55:02;;;;;;;1.50;0.88;;;;;;;3.77;91.81;67195.78;4978487;28;20038;-88
2022/04/03 10:57:47;;;;;;;1.60;1.10;;;;;;;3.79;92.67;67198.03;5006421;28;20682;-88
2022/04/03 11:00:14;;;;;;;3.80;1.52;;;;;;;3.65;93.69;67184.31;4988619;28;20045;-88
2022/04/03 11:02:45;;;;;;;8.63;4.03;;;;;;;3.70;94.79;67187.88;5024932;28;20144;-88
2022/04/03 11:05:22;;;;;;;3.80;2.25;;;;;;;3.67;94.79;67184.50;4974028;28;20514;-88
2022/04/03 11:08:13;;;;;;;4.38;2.10;;;;;;;3.77;94.36;67198.41;4971756;28;20051;-89
2022/04/03 11:10:55;;;;;;;6.03;2.60;;;;;;;3.74;93.52;67191.81;4933451;28;20585;-88
2022/04/03 11:13:29;;;;;;;4.75;2.45;;;;;;;3.83;92.74;67207.81;4956224;28;20513;-89
2022/04/03 11:15:54;;;;;;;4.78;1.95;;;;;;;3.95;92.25;67214.97;4974215;28;20462;-88
2022/04/03 11:18:29;;;;;;;3.42;1.92;;;;;;;;;;4955979;28;20039;-88
2022/04/03 11:21:25;;;;;;;4.85;2.50;;;;;;;3.99;89.87;67214.22;4948939;28;20526;-89
2022/04/03 11:24:19;;;;;;;4.40;2.70;;;;;;;3.99;90.31;67219.47;4932352;28;20039;-88
2022/04/03 11:26:44;;;;;;;4.28;1.70;;;;;;;3.92;90.18;67211.59;4933519;28;20050;-87
2022/04/03 11:29:10;;;;;;;6.35;2.70;;;;;;;3.87;91.28;67205.94;4946150;28;20067;-86
2022/04/03 11:35:01;;;;;;;5.55;2.15;;;;;;;3.88;93.13;67207.06;4928749;28;22427;-87
2022/04/03 11:37:26;;;;;;;5.22;2.33;;;;;;;3.91;92.43;67210.44;4994927;28;20469;-87
2022/04/03 11:39:53;;;;;;;5.97;2.30;;;;;;;3.94;93.61;67208.56;5009154;28;20048;-86
2022/04/03 11:42:22;;;;;;;3.83;1.95;;;;;;;4.01;95.10;67224.94;5004732;28;20046;-88
2022/04/03 11:44:53;;;;;;;5.68;2.55;;;;;;;4.11;94.78;67235.09;5023932;28;20049;-87
2022/04/03 11:47:25;;;;;;;4.35;2.30;;;;;;;4.19;94.92;67244.69;5018146;28;20034;-87
2022/04/03 11:50:15;;;;;;;4.28;2.70;;;;;;;4.29;93.85;67248.06;5005328;28;20037;-87
2022/04/03 11:52:41;;;;;;;4.32;2.17;;;;;;;4.36;92.23;67260.09;5005620;28;20564;-87
2022/04/03 11:55:10;;;;;;;5.70;2.13;;;;;;;;;;4974256;28;20157;-87
2022/04/03 11:57:35;;;;;;;3.20;2.60;;;;;;;;;;5005602;28;20066;-86
2022/04/03 12:00:01;;;;;;;4.93;2.28;;;;;;;5.16;91.04;67344.03;5008255;28;20531;-86